createdAt,value
2023-05-09T00:04:21.046Z,99400.69
2023-05-09T00:09:25.112Z,99402.22
2023-05-09T00:14:30.612Z,99399.84
2023-05-09T00:19:35.091Z,99394.91
2023-05-09T00:24:39.310Z,99384.41
2023-05-09T00:29:45.288Z,99379.25
2023-05-09T00:34:49.483Z,99375.59
2023-05-09T00:39:53.705Z,99382.97
2023-05-09T00:44:59.368Z,99382.50
2023-05-09T00:50:03.947Z,99373.59
2023-05-09T00:55:09.280Z,99372.47
2023-05-09T01:00:16.706Z,99376.06
2023-05-09T01:05:21.557Z,99371.91
2023-05-09T01:10:32.738Z,99371.22
2023-05-09T01:15:42.049Z,99363.66
2023-05-09T01:20:48.594Z,99354.47
2023-05-09T01:25:58.772Z,99356.34
2023-05-09T01:31:05.404Z,99353.63
2023-05-09T01:36:15.140Z,99363.59
2023-05-09T01:41:20.838Z,99348.75
2023-05-09T01:46:26.834Z,99362.34
2023-05-09T01:51:32.708Z,99365.47
2023-05-09T01:56:37.788Z,99352.09
2023-05-09T02:01:43.581Z,99347.28
2023-05-09T02:06:50.681Z,99342.63
2023-05-09T02:11:55.631Z,99339.53
2023-05-09T02:17:06.264Z,99336.78
2023-05-09T02:22:10.772Z,99340.34
2023-05-09T02:27:16.025Z,99338.38
2023-05-09T02:32:24.427Z,99345.50
2023-05-09T02:37:29.124Z,99339.41
2023-05-09T02:42:32.985Z,99342.09
2023-05-09T02:47:39.240Z,99338.91
2023-05-09T02:52:43.448Z,99341.78
2023-05-09T02:57:47.286Z,99336.31
2023-05-09T03:02:53.106Z,99345.44
2023-05-09T03:07:57.087Z,99352.03
2023-05-09T03:13:01.303Z,99340.06
2023-05-09T03:18:07.084Z,99334.59
2023-05-09T03:23:11.204Z,99339.44
2023-05-09T03:28:15.445Z,99331.50
2023-05-09T03:33:21.818Z,99338.91
2023-05-09T03:38:25.986Z,99329.72
2023-05-09T03:43:30.257Z,99324.97
2023-05-09T03:48:36.299Z,99330.44
2023-05-09T03:53:40.776Z,99329.13
2023-05-09T03:58:46.421Z,99334.59
2023-05-09T04:03:53.134Z,99335.00
2023-05-09T04:08:58.687Z,99335.41
2023-05-09T04:14:07.333Z,99330.84
2023-05-09T04:19:14.800Z,99336.47
2023-05-09T04:24:18.881Z,99341.91
2023-05-09T04:29:25.128Z,99332.16
2023-05-09T04:34:34.091Z,99334.34
2023-05-09T04:39:44.234Z,99338.91
2023-05-09T04:44:55.244Z,99326.66
2023-05-09T04:50:01.312Z,99339.09
2023-05-09T04:55:06.291Z,99340.19
2023-05-09T05:00:16.788Z,99334.19
2023-05-09T05:05:25.354Z,99335.88
2023-05-09T05:10:31.359Z,99337.25
2023-05-09T05:15:43.804Z,99339.59
2023-05-09T05:20:49.356Z,99338.78
2023-05-09T05:25:53.986Z,99332.72
2023-05-09T05:30:57.915Z,99333.69
2023-05-09T05:36:03.618Z,99338.25
2023-05-09T05:41:11.217Z,99337.44
2023-05-09T05:46:17.312Z,99333.16
2023-05-09T05:51:23.044Z,99330.66
2023-05-09T05:56:27.228Z,99326.38
2023-05-09T06:01:32.986Z,99323.69
2023-05-09T06:06:38.517Z,99324.41
2023-05-09T06:11:42.461Z,99317.00
2023-05-09T06:16:46.602Z,99327.56
2023-05-09T06:21:52.771Z,99319.56
2023-05-09T06:26:57.801Z,99309.38
2023-05-09T06:32:02.043Z,99313.22
2023-05-09T06:37:08.308Z,99325.47
2023-05-09T06:42:12.254Z,99329.38
2023-05-09T06:47:16.741Z,99315.69
2023-05-09T06:52:22.490Z,99323.47
2023-05-09T06:57:26.762Z,99309.38
2023-05-09T07:02:30.796Z,99310.06
2023-05-09T07:07:36.186Z,99306.81
2023-05-09T07:12:40.046Z,99308.97
2023-05-09T07:17:43.980Z,99292.53
2023-05-09T07:22:49.387Z,99298.41
2023-05-09T07:27:53.634Z,99281.22
2023-05-09T07:32:57.912Z,99269.97
2023-05-09T07:38:03.456Z,99294.09
2023-05-09T07:43:07.261Z,99268.03
2023-05-09T07:48:11.691Z,99271.25
2023-05-09T07:53:16.918Z,99264.88
2023-05-09T07:58:21.146Z,99262.94
2023-05-09T08:03:25.582Z,99262.00
2023-05-09T08:08:30.820Z,99252.81
2023-05-09T08:13:34.870Z,99250.53
2023-05-09T08:18:38.805Z,99264.31
2023-05-09T08:23:43.954Z,99273.19
2023-05-09T08:28:47.968Z,99246.81
2023-05-09T08:33:52.001Z,99244.50
2023-05-09T08:38:58.037Z,99241.41
2023-05-09T08:44:01.878Z,99252.31
2023-05-09T08:49:07.054Z,99252.69
2023-05-09T08:54:12.979Z,99234.63
2023-05-09T08:59:18.064Z,99225.22
2023-05-09T09:04:23.369Z,99221.16
2023-05-09T09:09:29.182Z,99231.25
2023-05-09T09:14:35.822Z,99225.41
2023-05-09T09:19:41.888Z,99236.91
2023-05-09T09:24:47.413Z,99229.88
2023-05-09T09:29:51.540Z,99233.91
2023-05-09T09:35:07.070Z,99231.81
2023-05-09T09:40:14.586Z,99235.38
2023-05-09T09:45:19.579Z,99232.16
2023-05-09T09:50:25.426Z,99239.03
2023-05-09T09:55:30.925Z,99215.44
2023-05-09T10:00:35.063Z,99223.97
2023-05-09T10:05:40.964Z,99221.19
2023-05-09T10:10:46.177Z,99223.28
2023-05-09T10:15:53.894Z,99210.88
2023-05-09T10:21:01.965Z,99183.81
2023-05-09T10:26:13.525Z,99186.06
2023-05-09T10:31:22.701Z,99188.78
2023-05-09T10:36:26.601Z,99184.91
2023-05-09T10:41:32.750Z,99177.03
2023-05-09T10:46:37.043Z,99172.41
2023-05-09T10:51:41.993Z,99164.19
2023-05-09T10:56:47.158Z,99160.22
2023-05-09T11:02:01.189Z,99160.09
2023-05-09T11:07:20.952Z,99146.88
2023-05-09T11:12:26.322Z,99153.41
2023-05-09T11:17:32.170Z,99135.09
2023-05-09T11:22:41.635Z,99126.50
2023-05-09T11:27:48.565Z,99123.69
2023-05-09T11:32:53.857Z,99128.56
2023-05-09T11:38:02.002Z,99106.94
2023-05-09T11:43:09.283Z,99106.63
2023-05-09T11:48:13.377Z,99118.84
2023-05-09T11:53:17.573Z,99098.03
2023-05-09T11:58:23.293Z,99105.16
2023-05-09T12:03:27.487Z,99101.34
2023-05-09T12:08:31.418Z,99107.84
2023-05-09T12:13:36.934Z,99071.06
2023-05-09T12:18:45.643Z,99093.84
2023-05-09T12:23:51.644Z,99080.22
2023-05-09T12:28:58.601Z,99066.19
2023-05-09T12:34:02.833Z,99069.03
2023-05-09T12:39:10.554Z,99078.75
2023-05-09T12:44:25.935Z,99046.66
2023-05-09T12:49:30.887Z,99058.66
2023-05-09T12:54:34.773Z,99050.47
2023-05-09T12:59:45.065Z,99043.91
2023-05-09T13:04:48.879Z,99042.53
2023-05-09T13:09:57.536Z,99035.38
2023-05-09T13:15:03.298Z,99030.53
2023-05-09T13:20:09.228Z,99030.81
2023-05-09T13:25:13.586Z,99015.59
2023-05-09T13:30:20.134Z,99017.03
2023-05-09T13:35:24.683Z,98992.88
2023-05-09T13:40:28.604Z,99007.22
2023-05-09T13:45:34.403Z,99000.72
2023-05-09T13:50:38.482Z,98988.97
2023-05-09T13:55:42.779Z,98988.94
2023-05-09T14:00:48.025Z,98990.09
2023-05-09T14:05:52.541Z,98980.28
2023-05-09T14:10:56.425Z,98971.66
2023-05-09T14:16:02.414Z,98974.56
2023-05-09T14:21:07.607Z,98966.28
2023-05-09T14:26:11.537Z,98969.47
2023-05-09T14:31:17.622Z,98962.28
2023-05-09T14:36:21.818Z,98963.81
2023-05-09T14:41:26.291Z,98948.88
2023-05-09T14:46:31.586Z,98960.34
2023-05-09T14:51:35.465Z,98933.19
2023-05-09T14:56:39.632Z,98938.69
2023-05-09T15:01:45.645Z,98945.72
2023-05-09T15:06:49.906Z,98933.06
2023-05-09T15:11:54.799Z,98932.13
2023-05-09T15:17:03.322Z,98925.81
2023-05-09T15:22:08.610Z,98912.69
2023-05-09T15:27:12.856Z,98912.13
2023-05-09T15:32:18.649Z,98908.66
2023-05-09T15:37:22.923Z,98881.38
2023-05-09T15:42:27.294Z,98880.28
2023-05-09T15:47:33.317Z,98869.09
2023-05-09T15:52:37.540Z,98863.72
2023-05-09T15:57:41.949Z,98854.28
2023-05-09T16:02:47.515Z,98851.53
2023-05-09T16:07:53.424Z,98835.88
2023-05-09T16:12:57.395Z,98823.63
2023-05-09T16:18:03.085Z,98833.13
2023-05-09T16:23:07.125Z,98825.41
2023-05-09T16:28:11.389Z,98819.06
2023-05-09T16:33:17.122Z,98810.38
2023-05-09T16:38:21.142Z,98794.34
2023-05-09T16:43:25.373Z,98794.78
2023-05-09T16:48:31.226Z,98793.84
2023-05-09T16:53:36.486Z,98788.66
2023-05-09T16:58:40.647Z,98777.28
2023-05-09T17:03:45.966Z,98774.59
2023-05-09T17:08:50.247Z,98766.63
2023-05-09T17:13:54.317Z,98763.94
2023-05-09T17:18:59.862Z,98749.06
2023-05-09T17:24:04.074Z,98748.03
2023-05-09T17:29:08.280Z,98741.06
2023-05-09T17:34:13.491Z,98738.91
2023-05-09T17:39:17.943Z,98741.91
2023-05-09T17:44:21.827Z,98729.06
2023-05-09T17:49:28.047Z,98736.56
2023-05-09T17:54:32.195Z,98726.53
2023-05-09T17:59:40.359Z,98714.69
2023-05-09T18:04:46.351Z,98722.34
2023-05-09T18:09:50.398Z,98714.28
2023-05-09T18:14:55.382Z,98717.66
2023-05-09T18:20:00.910Z,98715.78
2023-05-09T18:25:05.517Z,98703.28
2023-05-09T18:30:10.608Z,98700.13
2023-05-09T18:35:16.033Z,98705.00
2023-05-09T18:40:20.093Z,98699.19
2023-05-09T18:45:23.960Z,98703.63
2023-05-09T18:50:30.509Z,98703.19
2023-05-09T18:55:34.811Z,98698.66
2023-05-09T19:00:40.092Z,98700.00
2023-05-09T19:05:46.880Z,98697.59
2023-05-09T19:10:50.956Z,98698.44
2023-05-09T19:15:54.738Z,98689.47
2023-05-09T19:21:00.190Z,98689.50
2023-05-09T19:26:04.165Z,98680.88
2023-05-09T19:31:09.049Z,98683.00
2023-05-09T19:36:14.634Z,98674.00
2023-05-09T19:41:18.644Z,98671.22
2023-05-09T19:46:23.082Z,98666.69
2023-05-09T19:51:29.603Z,98675.41
2023-05-09T19:56:34.697Z,98672.13
2023-05-09T20:01:38.602Z,98676.06
2023-05-09T20:06:45.215Z,98673.28
2023-05-09T20:11:49.371Z,98666.09
2023-05-09T20:16:53.430Z,98663.44
2023-05-09T20:21:58.903Z,98662.63
2023-05-09T20:27:03.314Z,98670.09
2023-05-09T20:32:07.433Z,98660.28
2023-05-09T20:37:13.011Z,98657.97
2023-05-09T20:42:17.495Z,98659.28
2023-05-09T20:47:21.945Z,98655.97
2023-05-09T20:52:27.686Z,98653.03
2023-05-09T20:57:31.854Z,98646.47
2023-05-09T21:02:36.226Z,98655.91
2023-05-09T21:07:41.728Z,98652.78
2023-05-09T21:12:45.765Z,98642.03
2023-05-09T21:17:49.631Z,98646.22
2023-05-09T21:22:55.131Z,98631.06
2023-05-09T21:27:59.189Z,98634.59
2023-05-09T21:33:03.785Z,98635.81
2023-05-09T21:38:09.063Z,98626.44
2023-05-09T21:43:13.089Z,98632.78
2023-05-09T21:48:17.107Z,98632.63
2023-05-09T21:53:23.537Z,98631.66
2023-05-09T21:58:27.772Z,98634.09
2023-05-09T22:03:31.964Z,98643.06
2023-05-09T22:08:37.149Z,98634.69
2023-05-09T22:13:41.157Z,98642.06
2023-05-09T22:18:45.357Z,98635.75
2023-05-09T22:23:50.640Z,98632.34
2023-05-09T22:28:54.643Z,98633.00
2023-05-09T22:33:58.657Z,98625.03
2023-05-09T22:39:04.390Z,98618.34
2023-05-09T22:44:08.442Z,98609.41
2023-05-09T22:49:12.853Z,98597.47
2023-05-09T22:54:21.254Z,98593.41
2023-05-09T22:59:25.354Z,98597.47
2023-05-09T23:04:29.585Z,98594.84
2023-05-09T23:09:35.442Z,98591.38
2023-05-09T23:14:39.420Z,98592.16
2023-05-09T23:19:43.290Z,98584.47
2023-05-09T23:24:48.759Z,98577.75
2023-05-09T23:29:52.829Z,98580.00
2023-05-09T23:34:56.639Z,98575.88
2023-05-09T23:40:02.042Z,98570.94
2023-05-09T23:45:07.200Z,98575.31
2023-05-09T23:50:12.434Z,98566.06
2023-05-09T23:55:18.846Z,98567.19
